Time;durP1;ratioP1;P1;durP2;ratioP2;P2;SDS_P1;SDS_P2;PMS_P1;PMS_P2;Temp;Humidity;BMP_temperature;BMP_pressure;BME280_temperature;BME280_humidity;BME280_pressure;Samples;Min_cycle;Max_cycle;Signal;HPM_P1;HPM_P2
2022/05/07 00:00:41;;;;;;;73.70;44.70;;;;;;;;;;5083170;28;20098;-68
2022/05/07 00:03:08;;;;;;;69.45;43.25;;;;;;;;;;5082987;28;20048;-68
2022/05/07 00:05:34;;;;;;;76.82;45.45;;;;;;;;;;5084524;28;20550;-68
2022/05/07 00:08:00;;;;;;;71.25;45.72;;;;;;;;;;5084157;28;20079;-68
2022/05/07 00:10:26;;;;;;;67.25;42.08;;;;;;;;;;5087874;28;20555;-68
2022/05/07 00:12:53;;;;;;;75.03;46.58;;;;;;;;;;5088266;28;20044;-68
2022/05/07 00:15:19;;;;;;;72.93;44.05;;;;;;;;;;5088276;28;20044;-68
2022/05/07 00:18:05;;;;;;;72.82;46.75;;;;;;;;;;5088472;28;20130;-68
2022/05/07 00:20:32;;;;;;;74.80;46.30;;;;;;;;;;5088233;28;20051;-68
2022/05/07 00:22:59;;;;;;;75.57;46.50;;;;;;;;;;5088331;28;20037;-68
2022/05/07 00:25:25;;;;;;;79.68;46.63;;;;;;;;;;5086843;28;20048;-68
2022/05/07 00:27:51;;;;;;;68.88;41.17;;;;;;;;;;5087969;28;20180;-68
2022/05/07 00:30:17;;;;;;;71.85;44.53;;;;;;;;;;5088157;28;20052;-67
2022/05/07 00:32:44;;;;;;;76.65;42.80;;;;;;;;;;5086795;28;20067;-67
2022/05/07 00:35:10;;;;;;;68.82;42.15;;;;;;;;;;5088029;28;20048;-68
2022/05/07 00:37:39;;;;;;;70.50;43.38;;;;;;;;;;5087930;28;20044;-68
2022/05/07 00:40:06;;;;;;;74.95;42.45;;;;;;;;;;5086423;28;20048;-67
2022/05/07 00:42:32;;;;;;;70.88;45.38;;;;;;;;;;5086743;28;20104;-67
2022/05/07 00:44:58;;;;;;;74.60;44.13;;;;;;;;;;5087733;28;20609;-67
2022/05/07 00:47:25;;;;;;;76.78;44.08;;;;;;;;;;5087691;28;20052;-68
2022/05/07 00:52:44;;;;;;;73.13;43.83;;;;;;;;;;5087771;28;20130;-68
2022/05/07 00:55:11;;;;;;;80.13;46.78;;;;;;;;;;5069341;28;20048;-67
2022/05/07 00:57:37;;;;;;;74.60;44.65;;;;;;;;;;5086338;28;20090;-67
2022/05/07 01:00:04;;;;;;;78.22;44.78;;;;;;;;;;5086174;28;20055;-68
2022/05/07 01:02:31;;;;;;;78.15;45.25;;;;;;;;;;5086194;28;20056;-67
2022/05/07 01:04:57;;;;;;;75.50;44.58;;;;;;;;;;5086387;28;20461;-67
2022/05/07 01:07:23;;;;;;;69.40;46.22;;;;;;;;;;5086122;28;20048;-67
2022/05/07 01:09:50;;;;;;;77.20;45.72;;;;;;;;;;5087253;28;20139;-67
2022/05/07 01:12:16;;;;;;;71.97;43.50;;;;;;;;;;5086078;28;20127;-67
2022/05/07 01:14:43;;;;;;;73.40;44.27;;;;;;;;;;5086187;28;20056;-67
2022/05/07 01:17:09;;;;;;;69.32;43.85;;;;;;;;;;5087292;28;20074;-67
2022/05/07 01:19:36;;;;;;;69.33;44.97;;;;;;;;;;5085771;28;20048;-66
2022/05/07 01:22:02;;;;;;;72.65;45.38;;;;;;;;;;5086301;28;20112;-67
2022/05/07 01:24:29;;;;;;;73.82;46.40;;;;;;;;;;5119678;28;20103;-67
2022/05/07 01:26:55;;;;;;;73.50;44.78;;;;;;;;;;5085846;28;20556;-67
2022/05/07 01:29:21;;;;;;;70.97;44.22;;;;;;;;;;5086961;28;20329;-67
2022/05/07 01:31:47;;;;;;;73.85;46.22;;;;;;;;;;5087021;28;20063;-67
2022/05/07 01:34:13;;;;;;;73.88;44.50;;;;;;;;;;5086663;28;20440;-66
2022/05/07 01:36:40;;;;;;;73.20;44.88;;;;;;;;;;5085718;28;20500;-66
2022/05/07 01:39:06;;;;;;;73.72;42.50;;;;;;;;;;5086712;28;20052;-66
2022/05/07 01:41:32;;;;;;;69.95;44.08;;;;;;;;;;5086907;28;20051;-66
2022/05/07 01:43:58;;;;;;;66.47;42.70;;;;;;;;;;5086714;28;20048;-67
2022/05/07 01:49:09;;;;;;;70.28;44.13;;;;;;;;;;5085190;28;20056;-66
2022/05/07 01:51:36;;;;;;;67.95;44.47;;;;;;;;;;5086288;28;20041;-67
2022/05/07 01:54:02;;;;;;;68.93;41.55;;;;;;;;;;5086483;28;20051;-67
2022/05/07 01:56:28;;;;;;;74.07;43.47;;;;;;;;;;5086698;28;20074;-66
2022/05/07 01:58:54;;;;;;;72.70;43.15;;;;;;;;;;5085250;28;20069;-67
2022/05/07 02:01:20;;;;;;;75.03;44.17;;;;;;;;;;5072580;28;20095;-68
2022/05/07 02:03:46;;;;;;;72.72;43.50;;;;;;;;;;5066124;28;20045;-67
2022/05/07 02:06:12;;;;;;;74.45;41.50;;;;;;;;;;5065958;28;20056;-67
2022/05/07 02:08:39;;;;;;;67.90;41.50;;;;;;;;;;5065742;28;20515;-67
2022/05/07 02:11:05;;;;;;;72.13;41.42;;;;;;;;;;5066298;28;20068;-67
2022/05/07 02:13:31;;;;;;;78.25;44.85;;;;;;;;;;5064893;28;20121;-67
2022/05/07 02:15:57;;;;;;;70.25;43.35;;;;;;;;;;5066143;28;20048;-67
2022/05/07 02:18:23;;;;;;;65.07;40.63;;;;;;;;;;5066023;28;20084;-67
2022/05/07 02:20:49;;;;;;;71.07;40.83;;;;;;;;;;5065941;28;20052;-67
2022/05/07 02:23:17;;;;;;;63.75;40.67;;;;;;;;;;5065866;28;20041;-66
2022/05/07 02:25:44;;;;;;;65.88;42.25;;;;;;;;;;5066000;28;20041;-66
2022/05/07 02:28:10;;;;;;;72.50;41.03;;;;;;;;;;5064618;28;20055;-67
2022/05/07 02:30:36;;;;;;;68.57;39.67;;;;;;;;;;5065682;28;20041;-67
2022/05/07 02:33:02;;;;;;;69.78;40.65;;;;;;;;;;5064666;28;20037;-66
2022/05/07 02:35:28;;;;;;;60.13;39.30;;;;;;;;;;5065808;28;20045;-67
2022/05/07 02:37:54;;;;;;;59.08;37.20;;;;;;;;;;5065620;28;20496;-67
2022/05/07 02:40:20;;;;;;;59.25;38.80;;;;;;;;;;5065502;28;20106;-67
2022/05/07 02:42:47;;;;;;;67.60;38.47;;;;;;;;;;5065580;28;20205;-67
2022/05/07 02:45:13;;;;;;;61.40;35.25;;;;;;;;;;5065535;28;20048;-67
2022/05/07 02:47:40;;;;;;;60.83;36.73;;;;;;;;;;5065472;28;20041;-67
2022/05/07 02:50:07;;;;;;;61.58;36.15;;;;;;;;;;5063901;28;20122;-67
2022/05/07 02:52:34;;;;;;;63.07;38.13;;;;;;;;;;5065441;28;20041;-67
2022/05/07 02:55:01;;;;;;;62.38;37.42;;;;;;;;;;5064099;28;20056;-67
2022/05/07 02:57:27;;;;;;;63.00;37.55;;;;;;;;;;5065254;28;20048;-67
2022/05/07 02:59:53;;;;;;;59.53;35.90;;;;;;;;;;5065256;28;20512;-67
2022/05/07 03:02:19;;;;;;;63.65;37.47;;;;;;;;;;5064973;28;20122;-67
2022/05/07 03:04:47;;;;;;;55.67;33.42;;;;;;;;;;5065055;28;20067;-67
2022/05/07 03:07:13;;;;;;;57.58;34.65;;;;;;;;;;5065195;28;20049;-67
2022/05/07 03:09:40;;;;;;;64.22;37.42;;;;;;;;;;5064930;28;20105;-67
2022/05/07 03:12:06;;;;;;;68.45;37.35;;;;;;;;;;5063649;28;20055;-67
2022/05/07 03:14:32;;;;;;;64.13;37.85;;;;;;;;;;5064898;28;20068;-67
2022/05/07 03:16:59;;;;;;;59.47;36.75;;;;;;;;;;5065053;28;20053;-67
2022/05/07 03:19:26;;;;;;;52.35;34.25;;;;;;;;;;5064852;28;20036;-67
2022/05/07 03:21:52;;;;;;;54.38;35.10;;;;;;;;;;5064910;28;20052;-67
2022/05/07 03:24:18;;;;;;;52.78;33.13;;;;;;;;;;5064722;28;20063;-66
2022/05/07 03:26:44;;;;;;;45.42;29.98;;;;;;;;;;5064831;28;20049;-66
2022/05/07 03:29:10;;;;;;;55.25;33.00;;;;;;;;;;5063607;28;20041;-67
2022/05/07 03:31:39;;;;;;;51.70;34.65;;;;;;;;;;5064685;28;20080;-66
2022/05/07 03:34:05;;;;;;;52.28;34.35;;;;;;;;;;5064606;28;20047;-66
2022/05/07 03:36:31;;;;;;;56.92;34.42;;;;;;;;;;5064605;28;20045;-67
2022/05/07 03:38:57;;;;;;;61.90;37.90;;;;;;;;;;5064536;28;20056;-67
2022/05/07 03:41:23;;;;;;;64.28;36.60;;;;;;;;;;5064639;28;20104;-67
2022/05/07 03:43:49;;;;;;;61.53;37.65;;;;;;;;;;5062983;28;20041;-67
2022/05/07 03:46:16;;;;;;;60.17;35.05;;;;;;;;;;5064639;28;20045;-66
2022/05/07 03:48:42;;;;;;;55.22;36.65;;;;;;;;;;5064086;28;20504;-67
2022/05/07 03:51:08;;;;;;;47.15;31.13;;;;;;;;;;5064647;28;20053;-66
2022/05/07 03:53:36;;;;;;;42.33;31.08;;;;;;;;;;5064366;28;20091;-68
2022/05/07 03:56:08;;;;;;;44.38;29.25;;;;;;;;;;5064784;28;20404;-67
2022/05/07 03:58:35;;;;;;;43.45;31.98;;;;;;;;;;5063289;28;20073;-67
2022/05/07 04:01:01;;;;;;;50.75;31.85;;;;;;;;;;5063312;28;20099;-67
2022/05/07 04:03:28;;;;;;;45.28;31.27;;;;;;;;;;5064336;28;20049;-67
2022/05/07 04:05:55;;;;;;;49.92;32.05;;;;;;;;;;5064458;28;20107;-67
2022/05/07 04:08:21;;;;;;;50.22;32.55;;;;;;;;;;5064088;28;20053;-67
2022/05/07 04:10:47;;;;;;;42.05;30.42;;;;;;;;;;5064421;28;20045;-66
2022/05/07 04:13:15;;;;;;;48.35;30.65;;;;;;;;;;5064145;28;20053;-67
2022/05/07 04:15:43;;;;;;;46.53;31.42;;;;;;;;;;5064311;28;20091;-67
2022/05/07 04:18:09;;;;;;;45.40;32.70;;;;;;;;;;5064231;28;20041;-67
2022/05/07 04:20:36;;;;;;;42.85;31.70;;;;;;;;;;5064175;28;20041;-68
2022/05/07 04:23:02;;;;;;;43.13;31.13;;;;;;;;;;5064074;28;20048;-67
2022/05/07 04:25:29;;;;;;;44.53;30.38;;;;;;;;;;5064073;28;20076;-67
2022/05/07 04:27:55;;;;;;;45.15;30.65;;;;;;;;;;5064200;28;20052;-66
2022/05/07 04:30:22;;;;;;;46.17;31.20;;;;;;;;;;5064119;28;20048;-67
2022/05/07 04:32:48;;;;;;;48.05;31.60;;;;;;;;;;5064044;28;20052;-67
2022/05/07 04:35:14;;;;;;;51.55;33.67;;;;;;;;;;5064113;28;20107;-67
2022/05/07 04:37:41;;;;;;;51.65;34.40;;;;;;;;;;5064171;28;20068;-67
2022/05/07 04:40:09;;;;;;;57.60;36.90;;;;;;;;;;5063986;28;20529;-67
2022/05/07 04:42:36;;;;;;;55.42;38.33;;;;;;;;;;5064249;28;20049;-67
2022/05/07 04:45:02;;;;;;;64.00;38.17;;;;;;;;;;5063892;28;20072;-67
2022/05/07 04:47:28;;;;;;;62.47;38.83;;;;;;;;;;5063815;28;20044;-66
2022/05/07 04:49:54;;;;;;;61.17;39.28;;;;;;;;;;5062631;28;20052;-67
2022/05/07 04:52:20;;;;;;;58.38;39.97;;;;;;;;;;5063857;28;20041;-67
2022/05/07 04:54:46;;;;;;;61.83;39.25;;;;;;;;;;5062539;28;20053;-67
2022/05/07 04:57:12;;;;;;;61.58;39.97;;;;;;;;;;5065586;28;20049;-66
2022/05/07 04:59:39;;;;;;;70.97;39.67;;;;;;;;;;5067432;28;20185;-67
2022/05/07 05:02:05;;;;;;;62.38;39.30;;;;;;;;;;5066241;28;20076;-67
2022/05/07 05:04:31;;;;;;;61.65;40.05;;;;;;;;;;5067328;28;20068;-67
2022/05/07 05:06:57;;;;;;;64.93;40.78;;;;;;;;;;5067234;28;20048;-67
2022/05/07 05:09:23;;;;;;;58.40;39.28;;;;;;;;;;5067275;28;20056;-67
2022/05/07 05:11:49;;;;;;;60.28;38.55;;;;;;;;;;5067253;28;20493;-66
2022/05/07 05:17:00;;;;;;;59.85;38.63;;;;;;;;;;5066224;28;20049;-67
2022/05/07 05:19:26;;;;;;;55.72;38.65;;;;;;;;;;5067053;28;20094;-67
2022/05/07 05:21:53;;;;;;;58.15;38.25;;;;;;;;;;5067202;28;20060;-67
2022/05/07 05:24:19;;;;;;;57.35;37.33;;;;;;;;;;5066941;28;20128;-68
2022/05/07 05:26:45;;;;;;;57.17;37.33;;;;;;;;;;5067045;28;20098;-67
2022/05/07 05:29:11;;;;;;;57.80;38.45;;;;;;;;;;5066916;28;20199;-67
2022/05/07 05:31:37;;;;;;;59.40;38.03;;;;;;;;;;5066983;28;20049;-66
2022/05/07 05:34:03;;;;;;;59.83;39.67;;;;;;;;;;5066771;28;20049;-67
2022/05/07 05:36:30;;;;;;;61.22;40.28;;;;;;;;;;5066746;28;20068;-67
2022/05/07 05:38:56;;;;;;;63.65;41.28;;;;;;;;;;5066730;28;20083;-66
2022/05/07 05:41:22;;;;;;;59.45;37.50;;;;;;;;;;5066650;28;20064;-66
2022/05/07 05:43:49;;;;;;;50.05;35.50;;;;;;;;;;5066459;28;20118;-67
2022/05/07 05:46:15;;;;;;;55.88;35.92;;;;;;;;;;5066632;28;20060;-68
2022/05/07 05:48:41;;;;;;;54.58;35.47;;;;;;;;;;5066466;28;20061;-66
2022/05/07 05:51:07;;;;;;;53.70;34.47;;;;;;;;;;5066685;28;20053;-67
2022/05/07 05:53:34;;;;;;;47.97;34.47;;;;;;;;;;5066207;28;20048;-67
2022/05/07 05:56:00;;;;;;;48.50;35.17;;;;;;;;;;5066497;28;20096;-67
2022/05/07 05:58:33;;;;;;;46.00;33.88;;;;;;;;;;5065108;28;20057;-67
2022/05/07 06:00:59;;;;;;;46.83;31.55;;;;;;;;;;5066472;28;20124;-67
2022/05/07 06:03:25;;;;;;;42.63;33.10;;;;;;;;;;5066121;28;20049;-67
2022/05/07 06:05:52;;;;;;;44.80;32.47;;;;;;;;;;5066221;28;20049;-67
2022/05/07 06:08:18;;;;;;;51.58;31.65;;;;;;;;;;5064808;28;20048;-66
2022/05/07 06:10:44;;;;;;;45.28;32.25;;;;;;;;;;5064781;28;20053;-66
2022/05/07 06:13:10;;;;;;;42.47;30.42;;;;;;;;;;5048402;28;20067;-67
2022/05/07 06:15:38;;;;;;;44.50;32.10;;;;;;;;;;5066270;28;20125;-67
2022/05/07 06:18:04;;;;;;;44.25;31.83;;;;;;;;;;5065957;28;20049;-67
2022/05/07 06:20:31;;;;;;;45.60;32.05;;;;;;;;;;5066063;28;20045;-67
2022/05/07 06:23:00;;;;;;;39.10;30.25;;;;;;;;;;5064881;28;20061;-67
2022/05/07 06:28:11;;;;;;;41.78;29.10;;;;;;;;;;5065789;28;20109;-67
2022/05/07 06:30:37;;;;;;;38.88;30.80;;;;;;;;;;5065814;28;20044;-68
2022/05/07 06:33:04;;;;;;;37.80;28.65;;;;;;;;;;5065713;28;20049;-67
2022/05/07 06:35:30;;;;;;;36.38;28.35;;;;;;;;;;5065844;28;20053;-67
2022/05/07 06:37:56;;;;;;;35.65;27.83;;;;;;;;;;5064219;28;20075;-67
2022/05/07 06:40:22;;;;;;;32.78;25.67;;;;;;;;;;5065445;28;20168;-67
2022/05/07 06:42:49;;;;;;;36.47;24.23;;;;;;;;;;5065811;28;20037;-66
2022/05/07 06:45:16;;;;;;;29.05;23.48;;;;;;;;;;5065533;28;20068;-67
2022/05/07 06:47:42;;;;;;;33.83;23.17;;;;;;;;;;5065414;28;20132;-67
2022/05/07 06:50:08;;;;;;;33.55;23.55;;;;;;;;;;5070786;28;20086;-67
2022/05/07 06:52:44;;;;;;;28.80;22.98;;;;;;;;;;5083278;28;20044;-67
2022/05/07 06:55:20;;;;;;;31.85;22.65;;;;;;;;;;5074884;28;20104;-67
2022/05/07 06:57:46;;;;;;;30.83;23.23;;;;;;;;;;5084677;28;20544;-67
2022/05/07 07:00:14;;;;;;;32.08;22.50;;;;;;;;;;5085204;28;20497;-67
2022/05/07 07:02:40;;;;;;;35.58;25.58;;;;;;;;;;5085142;28;20056;-67
2022/05/07 07:05:06;;;;;;;37.20;25.02;;;;;;;;;;5084953;28;20431;-67
2022/05/07 07:07:33;;;;;;;34.15;25.42;;;;;;;;;;5085264;28;20044;-67
2022/05/07 07:10:00;;;;;;;41.88;27.88;;;;;;;;;;5083374;28;20098;-67
2022/05/07 07:12:26;;;;;;;39.63;28.73;;;;;;;;;;5084945;28;20045;-68
2022/05/07 07:14:52;;;;;;;38.70;28.73;;;;;;;;;;5085142;28;20124;-67
2022/05/07 07:17:19;;;;;;;40.75;28.90;;;;;;;;;;5085070;28;20070;-67
2022/05/07 07:19:45;;;;;;;42.88;30.33;;;;;;;;;;5084015;28;20044;-68
2022/05/07 07:22:12;;;;;;;41.05;29.40;;;;;;;;;;5084637;28;20054;-67
2022/05/07 07:24:38;;;;;;;46.08;30.23;;;;;;;;;;5084384;28;20045;-67
2022/05/07 07:27:04;;;;;;;41.35;28.60;;;;;;;;;;5084551;28;20054;-68
2022/05/07 07:29:30;;;;;;;39.08;28.42;;;;;;;;;;5083080;28;20400;-67
2022/05/07 07:31:56;;;;;;;43.67;29.63;;;;;;;;;;5083561;28;20072;-67
2022/05/07 07:34:23;;;;;;;40.95;27.25;;;;;;;;;;5083289;28;20049;-68
2022/05/07 07:36:50;;;;;;;33.00;23.65;;;;;;;;;;5083340;28;20064;-68
2022/05/07 07:39:17;;;;;;;31.27;23.77;;;;;;;;;;5083286;28;20499;-67
2022/05/07 07:41:43;;;;;;;34.35;22.73;;;;;;;;;;5076651;28;20045;-65
2022/05/07 07:44:09;;;;;;;31.17;21.60;;;;;;;;;;5083464;28;20607;-64
2022/05/07 07:49:21;;;;;;;32.65;23.33;;;;;;;;;;5084163;28;20752;-67
2022/05/07 07:51:47;;;;;;;28.80;21.33;;;;;;;;;;5083424;28;20063;-67
2022/05/07 07:54:17;;;;;;;28.13;21.70;;;;;;;;;;5084094;28;20045;-67
2022/05/07 07:56:43;;;;;;;36.83;26.27;;;;;;;;;;5084054;28;20048;-67
2022/05/07 07:59:09;;;;;;;40.15;27.77;;;;;;;;;;5079950;28;20074;-67
2022/05/07 08:01:35;;;;;;;39.10;28.00;;;;;;;;;;5083747;28;20119;-66
2022/05/07 08:04:02;;;;;;;44.92;29.90;;;;;;;;;;5083208;28;20387;-67
2022/05/07 08:06:30;;;;;;;43.05;29.48;;;;;;;;;;5083585;28;20049;-66
2022/05/07 08:11:41;;;;;;;45.10;33.30;;;;;;;;;;5084294;28;20404;-67
2022/05/07 08:14:08;;;;;;;47.35;33.45;;;;;;;;;;5083612;28;20075;-67
2022/05/07 08:16:34;;;;;;;48.00;33.28;;;;;;;;;;5082762;28;20046;-68
2022/05/07 08:19:00;;;;;;;45.75;34.33;;;;;;;;;;5082995;28;20050;-68
2022/05/07 08:21:27;;;;;;;47.50;33.33;;;;;;;;;;5084248;28;20044;-64
2022/05/07 08:23:53;;;;;;;50.03;33.45;;;;;;;;;;5083894;28;20045;-65
2022/05/07 08:26:19;;;;;;;47.03;33.25;;;;;;;;;;5082481;28;20160;-64
2022/05/07 08:28:45;;;;;;;43.90;31.42;;;;;;;;;;5084088;28;20100;-64
2022/05/07 08:31:11;;;;;;;53.13;34.75;;;;;;;;;;5085734;28;20044;-66
2022/05/07 08:33:40;;;;;;;51.92;35.13;;;;;;;;;;5086120;28;20055;-64
2022/05/07 08:36:07;;;;;;;56.92;38.50;;;;;;;;;;5086650;28;20056;-65
2022/05/07 08:38:34;;;;;;;59.72;37.78;;;;;;;;;;5086687;28;20064;-64
2022/05/07 08:41:00;;;;;;;63.43;40.27;;;;;;;;;;5087632;28;20049;-64
2022/05/07 08:43:31;;;;;;;61.83;38.00;;;;;;;;;;5086351;28;20354;-66
2022/05/07 08:45:58;;;;;;;58.65;38.60;;;;;;;;;;5087809;28;20086;-68
2022/05/07 08:48:24;;;;;;;64.22;40.72;;;;;;;;;;5087516;28;20076;-70
2022/05/07 08:50:53;;;;;;;59.75;37.45;;;;;;;;;;5087684;28;20045;-71
2022/05/07 08:53:20;;;;;;;57.60;38.08;;;;;;;;;;5086957;28;20056;-71
2022/05/07 08:55:51;;;;;;;55.78;37.75;;;;;;;;;;5086656;28;20055;-64
2022/05/07 08:58:17;;;;;;;46.53;30.90;;;;;;;;;;5086976;28;20108;-72
2022/05/07 09:00:45;;;;;;;46.05;30.75;;;;;;;;;;5087745;28;20070;-67
2022/05/07 09:03:14;;;;;;;38.50;27.05;;;;;;;;;;5087113;28;20143;-68
2022/05/07 09:05:41;;;;;;;38.20;26.13;;;;;;;;;;5086767;28;20098;-66
2022/05/07 09:08:07;;;;;;;49.70;30.50;;;;;;;;;;5087087;28;20135;-68
2022/05/07 09:10:34;;;;;;;39.70;27.67;;;;;;;;;;5085910;28;20139;-70
2022/05/07 09:13:12;;;;;;;42.28;28.05;;;;;;;;;;5086885;28;20100;-74
2022/05/07 09:15:59;;;;;;;39.60;28.80;;;;;;;;;;5087358;28;20036;-70
2022/05/07 09:18:26;;;;;;;42.60;30.00;;;;;;;;;;5086859;28;20163;-69
2022/05/07 09:21:15;;;;;;;37.03;28.05;;;;;;;;;;5086926;28;20119;-69
2022/05/07 09:23:42;;;;;;;41.85;29.00;;;;;;;;;;5084399;28;20111;-67
2022/05/07 09:26:08;;;;;;;42.00;27.55;;;;;;;;;;5068422;28;20147;-70
2022/05/07 09:28:38;;;;;;;42.78;29.20;;;;;;;;;;5086964;28;20495;-75
2022/05/07 09:31:04;;;;;;;39.60;27.90;;;;;;;;;;5087246;28;20067;-73
2022/05/07 09:33:34;;;;;;;42.30;28.98;;;;;;;;;;5086568;28;20044;-76
2022/05/07 09:36:12;;;;;;;41.58;27.40;;;;;;;;;;5086639;28;20048;-77
2022/05/07 09:38:39;;;;;;;44.88;29.20;;;;;;;;;;5086678;28;20075;-72
2022/05/07 09:41:05;;;;;;;47.22;29.67;;;;;;;;;;5086696;28;20068;-73
2022/05/07 09:43:32;;;;;;;41.13;29.57;;;;;;;;;;5085248;28;20056;-69
2022/05/07 09:45:58;;;;;;;44.20;29.13;;;;;;;;;;5086287;28;20362;-72
2022/05/07 09:48:25;;;;;;;42.65;29.63;;;;;;;;;;5086029;28;20063;-68
2022/05/07 09:50:51;;;;;;;45.38;29.45;;;;;;;;;;5086531;28;20088;-66
2022/05/07 09:58:51;;;;;;;49.50;33.58;;;;;;;;;;5086308;28;20059;-71
2022/05/07 10:01:25;;;;;;;43.47;30.08;;;;;;;;;;5086602;28;20048;-69
2022/05/07 10:04:04;;;;;;;41.67;29.67;;;;;;;;;;5086102;28;20096;-70
2022/05/07 10:06:45;;;;;;;39.95;28.10;;;;;;;;;;5086079;28;20044;-70
2022/05/07 10:09:23;;;;;;;46.00;29.27;;;;;;;;;;5085615;28;20075;-65
2022/05/07 10:11:56;;;;;;;39.80;27.27;;;;;;;;;;5086240;28;20044;-66
2022/05/07 10:14:26;;;;;;;41.75;24.98;;;;;;;;;;5085648;28;20449;-68
2022/05/07 10:17:09;;;;;;;43.17;27.02;;;;;;;;;;5065999;28;20052;-67
2022/05/07 10:19:39;;;;;;;42.83;28.75;;;;;;;;;;5066031;28;20045;-67
2022/05/07 10:22:23;;;;;;;43.40;28.65;;;;;;;;;;5070276;28;20158;-66
2022/05/07 10:25:02;;;;;;;42.90;29.25;;;;;;;;;;5085933;28;20101;-69
2022/05/07 10:27:38;;;;;;;43.40;27.65;;;;;;;;;;5084482;28;20123;-68
2022/05/07 10:30:18;;;;;;;45.33;29.70;;;;;;;;;;5085290;28;20045;-67
2022/05/07 10:32:44;;;;;;;40.17;27.88;;;;;;;;;;5066359;28;20045;-70
2022/05/07 10:35:11;;;;;;;39.95;29.05;;;;;;;;;;5085034;28;20070;-65
2022/05/07 10:37:41;;;;;;;43.40;30.90;;;;;;;;;;5084680;28;20130;-65
2022/05/07 10:40:11;;;;;;;45.10;30.17;;;;;;;;;;5084270;28;20045;-66
2022/05/07 10:42:40;;;;;;;47.78;32.85;;;;;;;;;;5084448;28;20049;-66
2022/05/07 10:45:08;;;;;;;47.53;29.15;;;;;;;;;;5085775;28;20076;-66
2022/05/07 10:47:34;;;;;;;53.10;30.27;;;;;;;;;;5084485;28;20040;-64
2022/05/07 10:50:13;;;;;;;43.58;30.02;;;;;;;;;;5083146;28;20075;-65
2022/05/07 10:52:40;;;;;;;46.78;29.20;;;;;;;;;;5085163;28;20121;-66
2022/05/07 10:55:18;;;;;;;37.58;26.58;;;;;;;;;;5084314;28;20059;-70
2022/05/07 10:57:44;;;;;;;;;;;;;;;;;;5084825;28;20044;-74
2022/05/07 11:00:11;;;;;;;37.35;22.70;;;;;;;;;;5084542;28;19920;-69
2022/05/07 11:02:37;;;;;;;36.10;22.83;;;;;;;;;;5084097;28;20055;-73
2022/05/07 11:05:04;;;;;;;35.00;21.92;;;;;;;;;;5085170;28;20047;-73
2022/05/07 11:07:30;;;;;;;29.02;21.55;;;;;;;;;;5084291;28;20040;-67
2022/05/07 11:09:56;;;;;;;30.33;21.65;;;;;;;;;;5083031;28;20045;-68
2022/05/07 11:12:22;;;;;;;37.17;23.42;;;;;;;;;;5083872;28;20092;-69
2022/05/07 11:14:49;;;;;;;31.50;20.50;;;;;;;;;;5084499;28;20052;-78
2022/05/07 11:17:20;;;;;;;31.88;21.92;;;;;;;;;;5086040;28;20074;-77
2022/05/07 11:19:46;;;;;;;27.70;19.13;;;;;;;;;;5084161;28;20055;-77
2022/05/07 11:22:13;;;;;;;26.88;17.85;;;;;;;;;;5087562;28;20048;-75
2022/05/07 11:24:39;;;;;;;19.73;14.35;;;;;;;;;;5080925;28;20086;-76
2022/05/07 11:27:07;;;;;;;23.00;14.20;;;;;;;;;;5083735;28;20543;-73
2022/05/07 11:29:33;;;;;;;;;;;;;;;;;;5085341;28;20071;-69
2022/05/07 11:32:07;;;;;;;19.65;13.63;;;;;;;;;;5084106;28;19920;-71
2022/05/07 11:34:37;;;;;;;19.50;13.88;;;;;;;;;;5083596;28;20086;-69
2022/05/07 11:37:10;;;;;;;21.95;13.70;;;;;;;;;;5082987;28;20119;-66
2022/05/07 11:39:56;;;;;;;16.80;11.73;;;;;;;;;;5083955;28;20090;-67
2022/05/07 11:42:25;;;;;;;14.88;10.25;;;;;;;;;;5082895;28;20093;-67
2022/05/07 11:47:50;;;;;;;11.05;7.35;;;;;;;;;;5083891;28;20059;-68
2022/05/07 11:50:24;;;;;;;12.05;7.18;;;;;;;;;;5083602;28;20459;-66
2022/05/07 11:52:50;;;;;;;11.80;7.60;;;;;;;;;;5083777;28;20058;-65
2022/05/07 11:55:20;;;;;;;12.48;9.05;;;;;;;;;;5078622;28;20076;-70
2022/05/07 11:57:47;;;;;;;14.43;8.68;;;;;;;;;;5089687;28;20548;-68
2022/05/07 12:00:24;;;;;;;11.20;9.15;;;;;;;;;;5091104;28;20044;-70
2022/05/07 12:02:53;;;;;;;12.98;9.02;;;;;;;;;;5083895;28;20831;-73
2022/05/07 12:05:20;;;;;;;13.73;9.32;;;;;;;;;;5089673;28;20036;-72
2022/05/07 12:07:47;;;;;;;11.00;9.02;;;;;;;;;;5089013;28;20083;-69
2022/05/07 12:10:13;;;;;;;14.68;8.35;;;;;;;;;;5087039;28;20053;-66
2022/05/07 12:12:39;;;;;;;11.70;8.82;;;;;;;;;;5083443;28;20096;-71
2022/05/07 12:15:11;;;;;;;13.52;8.77;;;;;;;;;;5085761;28;20052;-71
2022/05/07 12:17:53;;;;;;;13.35;8.32;;;;;;;;;;5093436;28;20045;-75
2022/05/07 12:20:20;;;;;;;9.60;8.32;;;;;;;;;;5099167;28;20095;-74
2022/05/07 12:31:02;;;;;;;16.65;10.00;;;;;;;;;;5088235;28;20059;-68
2022/05/07 12:33:28;;;;;;;17.77;11.50;;;;;;;;;;5089527;28;20393;-68
2022/05/07 12:35:54;;;;;;;17.02;11.25;;;;;;;;;;5088143;28;20051;-70
2022/05/07 12:38:20;;;;;;;18.00;12.20;;;;;;;;;;5092265;28;20044;-68
2022/05/07 12:40:46;;;;;;;17.17;13.38;;;;;;;;;;5096582;28;20044;-75
2022/05/07 12:43:12;;;;;;;21.95;14.75;;;;;;;;;;5087283;28;20045;-76
2022/05/07 12:45:39;;;;;;;27.13;15.70;;;;;;;;;;5087280;28;20047;-76
2022/05/07 12:48:05;;;;;;;25.55;16.70;;;;;;;;;;5094321;28;20048;-65
2022/05/07 12:50:31;;;;;;;23.73;16.27;;;;;;;;;;5091937;28;20047;-70
2022/05/07 12:52:57;;;;;;;25.70;17.20;;;;;;;;;;5091360;28;20048;-67
2022/05/07 12:55:24;;;;;;;25.30;17.63;;;;;;;;;;5094771;28;20070;-63
2022/05/07 12:57:50;;;;;;;24.73;16.60;;;;;;;;;;5083741;28;20066;-71
2022/05/07 13:00:16;;;;;;;24.40;16.98;;;;;;;;;;5100888;28;20045;-67
2022/05/07 13:02:43;;;;;;;20.40;14.68;;;;;;;;;;5091481;28;20079;-66
2022/05/07 13:05:09;;;;;;;21.52;13.70;;;;;;;;;;5092605;28;20044;-69
2022/05/07 13:07:35;;;;;;;17.30;11.98;;;;;;;;;;5090516;28;20073;-66
2022/05/07 13:10:01;;;;;;;16.45;12.35;;;;;;;;;;5094124;28;20525;-65
2022/05/07 13:12:27;;;;;;;14.48;11.15;;;;;;;;;;5092177;28;20048;-69
2022/05/07 13:14:55;;;;;;;12.63;8.30;;;;;;;;;;5091305;28;20165;-78
2022/05/07 13:17:21;;;;;;;14.40;9.90;;;;;;;;;;5089184;28;20100;-69
2022/05/07 13:19:47;;;;;;;11.85;8.50;;;;;;;;;;5090584;28;20052;-64
2022/05/07 13:22:14;;;;;;;11.52;8.75;;;;;;;;;;5088121;28;20097;-76
2022/05/07 13:24:41;;;;;;;15.70;10.43;;;;;;;;;;5087272;28;20078;-72
2022/05/07 13:27:07;;;;;;;12.60;7.60;;;;;;;;;;5087315;28;20050;-71
2022/05/07 13:29:34;;;;;;;10.33;7.00;;;;;;;;;;5086976;28;20377;-72
2022/05/07 13:32:00;;;;;;;9.13;7.47;;;;;;;;;;5086770;28;20298;-74
2022/05/07 13:34:27;;;;;;;8.50;5.97;;;;;;;;;;5085516;28;20049;-74
2022/05/07 13:36:53;;;;;;;7.95;3.97;;;;;;;;;;5085508;28;20044;-74
2022/05/07 13:39:19;;;;;;;3.72;2.92;;;;;;;;;;5089621;28;20120;-69
2022/05/07 13:41:46;;;;;;;3.70;2.20;;;;;;;;;;5086444;28;20058;-71
2022/05/07 13:44:12;;;;;;;4.88;3.03;;;;;;;;;;5089452;28;20041;-63
2022/05/07 13:46:38;;;;;;;3.72;2.35;;;;;;;;;;5089056;28;20049;-62
2022/05/07 13:49:05;;;;;;;7.15;4.53;;;;;;;;;;5086033;28;20414;-62
2022/05/07 13:51:31;;;;;;;11.73;6.88;;;;;;;;;;5085609;28;20045;-62
2022/05/07 13:53:58;;;;;;;8.68;6.05;;;;;;;;;;5086536;28;20307;-64
2022/05/07 13:56:26;;;;;;;;;;;;;;;;;;5084538;28;20056;-61
2022/05/07 13:58:52;;;;;;;8.30;7.00;;;;;;;;;;5085091;28;19927;-62
2022/05/07 14:01:18;;;;;;;9.20;6.75;;;;;;;;;;5085739;28;20101;-62
2022/05/07 14:03:44;;;;;;;9.65;6.63;;;;;;;;;;5086286;28;20512;-64
2022/05/07 14:06:14;;;;;;;7.90;6.45;;;;;;;;;;5086284;28;20044;-64
2022/05/07 14:08:41;;;;;;;8.38;6.15;;;;;;;;;;5085968;28;20055;-63
2022/05/07 14:11:08;;;;;;;8.10;6.38;;;;;;;;;;5085379;28;20190;-62
2022/05/07 14:13:34;;;;;;;;;;;;;;;;;;5085520;28;20048;-63
2022/05/07 14:16:00;;;;;;;8.70;5.75;;;;;;;;;;5083018;28;19935;-63
2022/05/07 14:18:27;;;;;;;9.88;6.82;;;;;;;;;;5084519;28;20039;-63
2022/05/07 14:20:56;;;;;;;9.17;6.80;;;;;;;;;;5085322;28;20059;-63
2022/05/07 14:23:22;;;;;;;9.10;5.85;;;;;;;;;;5083750;28;20302;-63
2022/05/07 14:25:48;;;;;;;7.80;6.30;;;;;;;;;;5082379;28;20044;-62
2022/05/07 14:28:14;;;;;;;8.25;6.35;;;;;;;;;;5079168;28;20041;-63
2022/05/07 14:30:41;;;;;;;10.65;7.63;;;;;;;;;;5088006;28;20060;-62
2022/05/07 14:33:08;;;;;;;10.45;6.70;;;;;;;;;;5090050;28;20102;-63
2022/05/07 14:35:37;;;;;;;9.35;7.22;;;;;;;;;;5087346;28;20049;-64
2022/05/07 14:38:08;;;;;;;9.52;7.18;;;;;;;;;;5087193;28;20045;-63
2022/05/07 14:40:34;;;;;;;12.60;7.10;;;;;;;;;;5088874;28;20036;-62
2022/05/07 14:43:01;;;;;;;11.80;6.85;;;;;;;;;;5090236;28;20052;-63
2022/05/07 14:45:28;;;;;;;8.75;6.90;;;;;;;;;;5093125;28;20068;-64
2022/05/07 14:47:54;;;;;;;7.05;6.20;;;;;;;;;;5096396;28;20511;-63
2022/05/07 14:50:22;;;;;;;6.93;4.50;;;;;;;;;;5090570;28;20049;-63
2022/05/07 14:52:49;;;;;;;7.07;3.63;;;;;;;;;;5081580;28;20059;-64
2022/05/07 14:55:15;;;;;;;;;;;;;;;;;;5083371;28;20043;-64